createdAt,value
2018-05-16T00:00:56.135Z,16.26
2018-05-16T00:03:24.450Z,15.76
2018-05-16T00:05:51.982Z,101.30
2018-05-16T00:08:20.310Z,26.74
2018-05-16T00:10:48.603Z,37.36
2018-05-16T00:13:16.926Z,69.30
2018-05-16T00:15:45.223Z,107.30
2018-05-16T00:18:13.545Z,99.46
2018-05-16T00:20:41.847Z,61.36
2018-05-16T00:23:10.179Z,52.98
2018-05-16T00:25:38.479Z,17.86
2018-05-16T00:28:06.811Z,16.62
2018-05-16T00:30:35.101Z,17.24
2018-05-16T00:33:03.420Z,18.08
2018-05-16T00:35:31.713Z,16.68
2018-05-16T00:38:00.042Z,17.30
2018-05-16T00:40:28.338Z,18.12
2018-05-16T00:42:56.657Z,17.70
2018-05-16T00:45:24.954Z,16.28
2018-05-16T00:47:53.271Z,17.26
2018-05-16T00:50:21.571Z,16.60
2018-05-16T00:52:49.890Z,15.86
2018-05-16T00:55:18.190Z,14.60
2018-05-16T00:57:46.510Z,15.76
2018-05-16T01:00:14.801Z,17.36
2018-05-16T01:02:43.115Z,16.72
2018-05-16T01:05:11.410Z,16.08
2018-05-16T01:07:39.743Z,16.44
2018-05-16T01:10:08.040Z,14.30
2018-05-16T01:12:36.368Z,16.46
2018-05-16T01:15:04.659Z,17.10
2018-05-16T01:17:32.995Z,38.68
2018-05-16T01:20:01.299Z,28.00
2018-05-16T01:22:29.630Z,14.66
2018-05-16T01:24:57.930Z,21.26
2018-05-16T01:27:26.250Z,18.14
2018-05-16T01:29:54.551Z,20.10
2018-05-16T01:32:22.871Z,18.92
2018-05-16T01:34:51.171Z,17.26
2018-05-16T01:37:18.721Z,16.48
2018-05-16T01:39:47.015Z,16.52
2018-05-16T01:42:15.341Z,17.52
2018-05-16T01:44:43.636Z,20.38
2018-05-16T01:47:11.952Z,21.80
2018-05-16T01:49:40.270Z,15.96
2018-05-16T01:52:08.567Z,15.24
2018-05-16T01:54:36.888Z,17.80
2018-05-16T01:57:05.185Z,15.24
2018-05-16T01:59:33.503Z,15.06
2018-05-16T02:02:01.814Z,16.40
2018-05-16T02:04:30.131Z,15.62
2018-05-16T02:06:58.430Z,16.50
2018-05-16T02:09:26.755Z,15.42
2018-05-16T02:11:55.057Z,17.38
2018-05-16T02:14:23.365Z,16.02
2018-05-16T02:16:51.662Z,15.80
2018-05-16T02:19:19.983Z,16.88
2018-05-16T02:21:48.278Z,14.76
2018-05-16T02:24:16.594Z,18.56
2018-05-16T02:26:44.889Z,17.12
2018-05-16T02:29:13.215Z,21.40
2018-05-16T02:31:41.518Z,14.18
2018-05-16T02:34:09.868Z,17.10
2018-05-16T02:36:38.162Z,16.50
2018-05-16T02:39:06.480Z,15.38
2018-05-16T02:41:34.781Z,19.04
2018-05-16T02:44:03.098Z,16.32
2018-05-16T02:46:31.399Z,16.68
2018-05-16T02:48:59.716Z,16.82
2018-05-16T02:51:28.011Z,15.16
2018-05-16T02:53:56.336Z,16.76
2018-05-16T02:56:24.635Z,16.28
2018-05-16T02:58:52.201Z,16.28
2018-05-16T03:01:20.502Z,16.00
2018-05-16T03:03:48.823Z,16.02
2018-05-16T03:06:17.127Z,16.36
2018-05-16T03:08:45.447Z,17.00
2018-05-16T03:11:13.734Z,17.14
2018-05-16T03:13:42.047Z,18.68
2018-05-16T03:16:10.351Z,17.98
2018-05-16T03:18:38.672Z,18.60
2018-05-16T03:21:06.975Z,20.48
2018-05-16T03:23:35.296Z,24.76
2018-05-16T03:26:03.595Z,21.40
2018-05-16T03:28:31.892Z,24.38
2018-05-16T03:31:00.205Z,22.98
2018-05-16T03:33:28.502Z,20.92
2018-05-16T03:35:56.823Z,21.06
2018-05-16T03:38:25.123Z,23.92
2018-05-16T03:40:53.447Z,23.40
2018-05-16T03:43:21.756Z,25.90
2018-05-16T03:45:50.073Z,29.92
2018-05-16T03:48:18.380Z,32.02
2018-05-16T03:50:46.709Z,34.20
2018-05-16T03:53:15.030Z,31.22
2018-05-16T03:55:43.352Z,32.06
2018-05-16T03:58:23.418Z,28.98
2018-05-16T04:01:03.635Z,26.68
2018-05-16T04:03:43.779Z,31.18
2018-05-16T04:06:12.098Z,29.50
2018-05-16T04:08:40.395Z,27.06
2018-05-16T04:11:08.714Z,29.42
2018-05-16T04:13:37.119Z,27.40
2018-05-16T04:16:05.337Z,30.82
2018-05-16T04:18:33.638Z,28.92
2018-05-16T04:21:01.956Z,29.38
2018-05-16T04:23:30.250Z,29.04
2018-05-16T04:25:58.570Z,31.80
2018-05-16T04:28:26.863Z,29.42
2018-05-16T04:30:55.175Z,26.54
2018-05-16T04:33:23.470Z,32.16
2018-05-16T04:35:51.778Z,29.18
2018-05-16T04:38:20.082Z,32.96
2018-05-16T04:40:48.402Z,31.06
2018-05-16T04:43:16.719Z,32.06
2018-05-16T04:45:45.057Z,28.88
2018-05-16T04:48:13.350Z,33.28
2018-05-16T04:50:41.679Z,33.78
2018-05-16T04:53:09.987Z,29.70
2018-05-16T04:55:38.303Z,32.20
2018-05-16T04:58:06.595Z,31.00
2018-05-16T05:00:34.922Z,32.00
2018-05-16T05:03:03.223Z,32.04
2018-05-16T05:05:31.542Z,34.22
2018-05-16T05:07:59.834Z,30.72
2018-05-16T05:10:28.160Z,31.46
2018-05-16T05:12:56.467Z,28.94
2018-05-16T05:15:24.786Z,27.90
2018-05-16T05:17:53.089Z,29.88
2018-05-16T05:20:21.417Z,31.02
2018-05-16T05:22:49.724Z,35.90
2018-05-16T05:25:18.058Z,32.56
2018-05-16T05:27:46.359Z,31.64
2018-05-16T05:30:15.325Z,33.06
2018-05-16T05:32:43.647Z,29.42
2018-05-16T05:35:11.948Z,31.90
2018-05-16T05:37:40.270Z,29.38
2018-05-16T05:40:08.567Z,29.34
2018-05-16T05:42:36.892Z,27.96
2018-05-16T05:45:05.191Z,27.86
2018-05-16T05:47:33.520Z,29.82
2018-05-16T05:50:01.821Z,29.06
2018-05-16T05:52:30.167Z,33.70
2018-05-16T05:54:58.479Z,29.14
2018-05-16T05:57:26.793Z,30.36
2018-05-16T05:59:55.115Z,29.46
2018-05-16T06:02:23.431Z,31.96
2018-05-16T06:04:51.732Z,26.76
2018-05-16T06:07:19.283Z,32.46
2018-05-16T06:09:47.578Z,32.56
2018-05-16T06:12:15.898Z,31.40
2018-05-16T06:14:44.240Z,28.44
2018-05-16T06:17:12.563Z,31.18
2018-05-16T06:19:40.965Z,31.66
2018-05-16T06:22:09.195Z,29.14
2018-05-16T06:24:37.490Z,29.08
2018-05-16T06:27:05.914Z,28.26
2018-05-16T06:29:34.129Z,29.16
2018-05-16T06:32:02.455Z,27.70
2018-05-16T06:34:30.752Z,25.34
2018-05-16T06:36:59.075Z,24.56
2018-05-16T06:39:27.380Z,26.34
2018-05-16T06:41:55.694Z,23.84
2018-05-16T06:44:23.996Z,26.18
2018-05-16T06:46:51.551Z,27.14
2018-05-16T06:49:19.848Z,25.14
2018-05-16T06:51:48.158Z,23.42
2018-05-16T06:54:16.454Z,23.62
2018-05-16T06:56:44.803Z,20.58
2018-05-16T06:59:13.090Z,21.52
2018-05-16T07:01:41.409Z,21.82
2018-05-16T07:04:09.756Z,18.66
2018-05-16T07:06:38.039Z,19.34
2018-05-16T07:09:06.334Z,15.88
2018-05-16T07:11:34.666Z,14.84
2018-05-16T07:14:02.970Z,15.78
2018-05-16T07:16:31.261Z,14.34
2018-05-16T07:18:59.579Z,15.54
2018-05-16T07:21:27.872Z,12.44
2018-05-16T07:23:56.220Z,14.84
2018-05-16T07:26:24.511Z,13.54
2018-05-16T07:28:52.821Z,13.02
2018-05-16T07:31:21.123Z,13.18
2018-05-16T07:33:49.436Z,12.16
2018-05-16T07:36:17.731Z,13.20
2018-05-16T07:38:46.052Z,13.36
2018-05-16T07:41:14.455Z,15.14
2018-05-16T07:43:42.698Z,12.60
2018-05-16T07:46:10.991Z,14.28
2018-05-16T07:48:39.303Z,12.54
2018-05-16T07:51:07.606Z,12.48
2018-05-16T07:53:35.927Z,14.48
2018-05-16T07:56:04.340Z,13.36
2018-05-16T07:58:32.623Z,13.84
2018-05-16T08:01:00.923Z,14.60
2018-05-16T08:03:29.242Z,17.74
2018-05-16T08:05:57.535Z,14.20
2018-05-16T08:08:25.860Z,14.94
2018-05-16T08:10:54.155Z,15.72
2018-05-16T08:13:22.474Z,16.82
2018-05-16T08:15:50.766Z,15.02
2018-05-16T08:18:19.082Z,17.68
2018-05-16T08:20:47.382Z,18.22
2018-05-16T08:23:15.707Z,14.92
2018-05-16T08:25:43.991Z,15.16
2018-05-16T08:28:12.305Z,16.38
2018-05-16T08:30:40.594Z,16.48
2018-05-16T08:33:08.914Z,16.90
2018-05-16T08:35:37.210Z,16.58
2018-05-16T08:38:05.523Z,15.52
2018-05-16T08:40:33.814Z,18.18
2018-05-16T08:43:02.212Z,18.88
2018-05-16T08:45:30.828Z,14.00
2018-05-16T08:47:59.143Z,16.38
2018-05-16T08:50:28.378Z,16.06
2018-05-16T08:52:56.712Z,14.50
2018-05-16T08:55:25.010Z,14.96
2018-05-16T08:57:53.308Z,13.98
2018-05-16T09:00:21.631Z,15.62
2018-05-16T09:02:49.930Z,19.46
2018-05-16T09:05:18.249Z,20.92
2018-05-16T09:07:46.551Z,15.88
2018-05-16T09:10:14.864Z,14.78
2018-05-16T09:12:43.179Z,15.66
2018-05-16T09:15:11.493Z,16.04
2018-05-16T09:17:39.787Z,13.80
2018-05-16T09:20:08.107Z,15.12
2018-05-16T09:22:36.395Z,14.22
2018-05-16T09:25:08.011Z,12.60
2018-05-16T09:27:36.317Z,13.10
2018-05-16T09:30:04.639Z,12.94
2018-05-16T09:32:32.931Z,12.22
2018-05-16T09:35:01.255Z,15.82
2018-05-16T09:37:29.559Z,11.90
2018-05-16T09:39:57.879Z,14.08
2018-05-16T09:42:26.177Z,12.14
2018-05-16T09:44:54.495Z,13.00
2018-05-16T09:47:22.788Z,14.04
2018-05-16T09:49:51.107Z,14.44
2018-05-16T09:52:19.407Z,14.76
2018-05-16T09:54:47.719Z,14.96
2018-05-16T09:57:16.015Z,16.20
2018-05-16T09:59:45.330Z,15.60
2018-05-16T10:02:13.623Z,17.20
2018-05-16T10:04:41.944Z,16.20
2018-05-16T10:07:10.243Z,17.36
2018-05-16T10:09:38.616Z,17.56
2018-05-16T10:12:06.866Z,17.86
2018-05-16T10:14:35.180Z,17.34
2018-05-16T10:17:03.580Z,16.62
2018-05-16T10:19:31.809Z,17.28
2018-05-16T10:22:00.119Z,17.38
2018-05-16T10:24:28.437Z,17.56
2018-05-16T10:26:56.727Z,19.22
2018-05-16T10:29:25.038Z,17.38
2018-05-16T10:31:53.331Z,16.45
2018-05-16T10:34:21.647Z,19.70
2018-05-16T10:36:49.939Z,18.30
2018-05-16T10:41:46.086Z,19.27
2018-05-16T10:44:14.390Z,17.88
2018-05-16T10:46:41.938Z,19.85
2018-05-16T10:49:09.471Z,20.07
2018-05-16T10:51:37.788Z,18.80
2018-05-16T10:54:06.086Z,19.84
2018-05-16T10:56:34.422Z,18.66
2018-05-16T10:59:02.721Z,20.20
2018-05-16T11:01:31.039Z,19.30
2018-05-16T11:03:59.334Z,20.66
2018-05-16T11:06:27.662Z,20.68
2018-05-16T11:08:55.963Z,19.66
2018-05-16T11:11:24.282Z,19.80
2018-05-16T11:13:52.574Z,20.76
2018-05-16T11:16:20.122Z,21.12
2018-05-16T11:18:48.423Z,20.64
2018-05-16T11:21:16.843Z,21.50
2018-05-16T11:23:45.282Z,21.28
2018-05-16T11:26:13.601Z,21.98
2018-05-16T11:28:41.895Z,23.80
2018-05-16T11:31:10.219Z,21.88
2018-05-16T11:33:38.510Z,19.72
2018-05-16T11:36:06.839Z,24.72
2018-05-16T11:38:35.139Z,22.16
2018-05-16T11:41:03.439Z,22.80
2018-05-16T11:43:31.799Z,20.92
2018-05-16T11:46:00.103Z,19.64
2018-05-16T11:48:28.423Z,20.36
2018-05-16T11:50:56.714Z,21.38
2018-05-16T11:53:25.028Z,19.28
2018-05-16T11:55:53.321Z,19.58
2018-05-16T11:58:21.656Z,18.14
2018-05-16T12:00:49.951Z,20.48
2018-05-16T12:03:18.269Z,20.16
2018-05-16T12:05:46.575Z,17.82
2018-05-16T12:08:14.903Z,17.98
2018-05-16T12:10:43.206Z,17.12
2018-05-16T12:13:11.527Z,22.00
2018-05-16T12:15:39.820Z,21.50
2018-05-16T12:18:08.144Z,19.24
2018-05-16T12:20:36.464Z,19.78
2018-05-16T12:23:04.782Z,18.66
2018-05-16T12:25:33.085Z,24.44
2018-05-16T12:28:01.400Z,19.38
2018-05-16T12:30:29.707Z,19.52
2018-05-16T12:32:58.023Z,22.46
2018-05-16T12:35:26.318Z,24.58
2018-05-16T12:37:54.683Z,27.94
2018-05-16T12:40:22.999Z,24.98
2018-05-16T12:43:03.235Z,20.52
2018-05-16T12:45:31.527Z,21.06
2018-05-16T12:47:59.836Z,24.70
2018-05-16T12:50:28.166Z,17.06
2018-05-16T12:52:56.462Z,15.54
2018-05-16T12:55:24.779Z,16.76
2018-05-16T12:57:53.079Z,16.20
2018-05-16T13:00:21.398Z,15.22
2018-05-16T13:02:49.690Z,14.72
2018-05-16T13:05:18.011Z,14.76
2018-05-16T13:07:46.306Z,16.26
2018-05-16T13:10:14.623Z,16.96
2018-05-16T13:12:42.919Z,13.92
2018-05-16T13:15:10.467Z,14.90
2018-05-16T13:17:38.858Z,17.28
2018-05-16T13:20:07.111Z,12.68
2018-05-16T13:22:35.415Z,13.90
2018-05-16T13:25:03.743Z,12.72
2018-05-16T13:27:32.059Z,12.42
2018-05-16T13:30:00.374Z,13.12
2018-05-16T13:32:28.670Z,13.68
2018-05-16T13:34:56.987Z,15.26
2018-05-16T13:37:24.518Z,14.82
2018-05-16T13:39:52.071Z,13.48
2018-05-16T13:42:20.378Z,12.86
2018-05-16T13:44:48.694Z,12.34
2018-05-16T13:47:16.391Z,12.08
2018-05-16T13:49:44.746Z,12.90
2018-05-16T13:52:13.043Z,13.36
2018-05-16T13:54:41.354Z,13.12
2018-05-16T13:57:09.657Z,15.30
2018-05-16T13:59:37.970Z,15.68
2018-05-16T14:02:06.275Z,14.64
2018-05-16T14:04:34.586Z,16.34
2018-05-16T14:07:02.120Z,16.12
2018-05-16T14:09:30.441Z,20.92
2018-05-16T14:11:58.736Z,16.26
2018-05-16T14:14:28.002Z,16.82
2018-05-16T14:16:56.322Z,17.54
2018-05-16T14:19:24.625Z,15.20
2018-05-16T14:21:52.953Z,15.76
2018-05-16T14:24:21.252Z,16.64
2018-05-16T14:26:49.567Z,16.24
2018-05-16T14:29:17.861Z,16.18
2018-05-16T14:31:47.058Z,17.58
2018-05-16T14:34:15.355Z,18.52
2018-05-16T14:36:43.678Z,16.32
2018-05-16T14:39:11.970Z,16.58
2018-05-16T14:41:40.283Z,17.74
2018-05-16T14:44:08.586Z,18.30
2018-05-16T14:46:36.896Z,18.28
2018-05-16T14:49:05.195Z,19.86
2018-05-16T14:51:33.506Z,17.32
2018-05-16T14:54:01.812Z,18.26
2018-05-16T14:56:30.139Z,18.66
2018-05-16T14:58:58.441Z,20.86
2018-05-16T15:01:26.759Z,17.92
2018-05-16T15:03:55.050Z,18.98
2018-05-16T15:06:23.362Z,16.48
2018-05-16T15:08:51.651Z,20.76
2018-05-16T15:11:19.971Z,17.38
2018-05-16T15:13:48.266Z,19.14
2018-05-16T15:16:16.581Z,15.36
2018-05-16T15:18:44.119Z,13.72
2018-05-16T15:21:12.447Z,13.54
2018-05-16T15:23:40.751Z,13.94
2018-05-16T15:26:09.063Z,14.50
2018-05-16T15:28:37.358Z,15.20
2018-05-16T15:31:05.679Z,15.14
2018-05-16T15:33:33.990Z,15.24
2018-05-16T15:36:02.306Z,21.36
2018-05-16T15:38:30.808Z,13.74
2018-05-16T15:40:58.941Z,14.18
2018-05-16T15:43:27.238Z,15.16
2018-05-16T15:45:55.559Z,15.96
2018-05-16T15:48:23.855Z,17.26
2018-05-16T15:50:52.186Z,13.64
2018-05-16T15:53:20.489Z,16.18
2018-05-16T15:55:48.792Z,19.58
2018-05-16T15:58:17.108Z,14.28
2018-05-16T16:00:45.409Z,14.50
2018-05-16T16:03:13.727Z,12.20
2018-05-16T16:05:42.022Z,13.58
2018-05-16T16:08:10.349Z,18.02
2018-05-16T16:10:38.651Z,17.06
2018-05-16T16:13:06.970Z,15.90
2018-05-16T16:15:35.268Z,17.36
2018-05-16T16:18:02.820Z,16.42
2018-05-16T16:20:30.351Z,15.94
2018-05-16T16:22:58.666Z,13.06
2018-05-16T16:25:26.979Z,16.28
2018-05-16T16:27:54.540Z,15.72
2018-05-16T16:30:22.844Z,11.80
2018-05-16T16:32:51.170Z,13.30
2018-05-16T16:35:19.466Z,12.92
2018-05-16T16:37:47.787Z,12.46
2018-05-16T16:40:16.079Z,28.70
2018-05-16T16:42:44.401Z,11.76
2018-05-16T16:45:12.700Z,13.38
2018-05-16T16:47:41.013Z,15.10
2018-05-16T16:50:09.359Z,12.28
2018-05-16T16:52:37.641Z,13.72
2018-05-16T16:55:05.951Z,11.54
2018-05-16T16:57:34.275Z,15.30
2018-05-16T17:00:02.611Z,11.72
2018-05-16T17:02:30.953Z,15.80
2018-05-16T17:04:59.251Z,16.22
2018-05-16T17:07:27.638Z,14.52
2018-05-16T17:09:55.926Z,15.14
2018-05-16T17:12:24.244Z,12.28
2018-05-16T17:14:52.548Z,14.10
2018-05-16T17:17:20.864Z,13.76
2018-05-16T17:19:49.163Z,12.82
2018-05-16T17:22:16.710Z,13.12
2018-05-16T17:24:45.024Z,14.58
2018-05-16T17:27:13.340Z,14.48
2018-05-16T17:29:41.640Z,15.96
2018-05-16T17:32:09.943Z,15.90
2018-05-16T17:34:38.266Z,15.50
2018-05-16T17:37:06.567Z,21.04
2018-05-16T17:39:34.907Z,21.98
2018-05-16T17:42:03.218Z,17.44
2018-05-16T17:44:31.535Z,16.68
2018-05-16T17:46:59.845Z,17.98
2018-05-16T17:49:28.176Z,16.92
2018-05-16T17:51:56.475Z,18.84
2018-05-16T17:54:24.792Z,16.12
2018-05-16T17:56:53.088Z,18.66
2018-05-16T17:59:20.639Z,20.62
2018-05-16T18:01:48.930Z,18.96
2018-05-16T18:04:17.238Z,18.92
2018-05-16T18:06:45.534Z,16.54
2018-05-16T18:09:13.851Z,16.30
2018-05-16T18:11:42.150Z,16.92
2018-05-16T18:14:22.355Z,17.42
2018-05-16T18:17:02.702Z,17.44
2018-05-16T18:19:30.999Z,17.30
2018-05-16T18:21:59.398Z,17.10
2018-05-16T18:24:27.724Z,17.72
2018-05-16T18:26:56.018Z,20.24
2018-05-16T18:29:24.375Z,18.20
2018-05-16T18:31:52.679Z,18.54
2018-05-16T18:34:21.051Z,23.66
2018-05-16T18:36:48.602Z,16.62
2018-05-16T18:39:16.939Z,20.78
2018-05-16T18:41:45.326Z,17.92
2018-05-16T18:44:13.672Z,18.40
2018-05-16T18:46:41.982Z,17.86
2018-05-16T18:49:10.326Z,14.80
2018-05-16T18:51:38.710Z,18.74
2018-05-16T18:54:07.164Z,22.16
2018-05-16T18:56:35.519Z,16.56
2018-05-16T18:59:03.880Z,14.52
2018-05-16T19:01:32.320Z,16.98
2018-05-16T19:04:00.725Z,15.16
2018-05-16T19:06:29.056Z,17.54
2018-05-16T19:08:57.405Z,15.78
2018-05-16T19:11:25.798Z,15.84
2018-05-16T19:13:54.140Z,15.96
2018-05-16T19:16:22.467Z,18.10
2018-05-16T19:18:50.848Z,15.78
2018-05-16T19:21:19.202Z,15.24
2018-05-16T19:23:47.523Z,15.42
2018-05-16T19:26:15.844Z,15.72
2018-05-16T19:28:44.227Z,17.06
2018-05-16T19:31:12.549Z,16.14
2018-05-16T19:33:40.926Z,17.86
2018-05-16T19:36:09.348Z,18.14
2018-05-16T19:38:37.702Z,15.78
2018-05-16T19:41:06.128Z,17.50
2018-05-16T19:43:34.431Z,18.00
2018-05-16T19:46:02.909Z,18.16
2018-05-16T19:48:31.141Z,16.10
2018-05-16T19:50:59.456Z,18.40
2018-05-16T19:53:27.768Z,17.82
2018-05-16T19:55:56.103Z,20.26
2018-05-16T19:58:24.453Z,16.82
2018-05-16T20:00:52.782Z,19.08
2018-05-16T20:03:21.157Z,19.18
2018-05-16T20:05:49.482Z,17.86
2018-05-16T20:08:17.832Z,22.80
2018-05-16T20:10:46.160Z,18.72
2018-05-16T20:13:14.459Z,18.86
2018-05-16T20:15:42.790Z,18.96
2018-05-16T20:18:11.149Z,22.42
2018-05-16T20:20:40.405Z,18.88
2018-05-16T20:23:08.709Z,20.08
2018-05-16T20:25:37.036Z,21.54
2018-05-16T20:28:05.361Z,23.32
2018-05-16T20:30:33.663Z,18.14
2018-05-16T20:33:01.988Z,16.36
2018-05-16T20:35:30.291Z,15.82
2018-05-16T20:37:58.614Z,15.74
2018-05-16T20:40:26.911Z,16.72
2018-05-16T20:42:55.227Z,19.06
2018-05-16T20:45:23.602Z,15.72
2018-05-16T20:47:51.867Z,19.82
2018-05-16T20:50:20.182Z,16.00
2018-05-16T20:52:48.495Z,17.00
2018-05-16T20:55:16.787Z,16.72
2018-05-16T20:57:45.197Z,15.94
2018-05-16T21:00:13.450Z,17.93
2018-05-16T21:02:41.770Z,19.70
2018-05-16T21:07:37.943Z,16.90
2018-05-16T21:10:06.235Z,17.26
2018-05-16T21:12:34.558Z,17.18
2018-05-16T21:15:02.859Z,20.54
2018-05-16T21:17:31.178Z,18.58
2018-05-16T21:19:59.473Z,17.92
2018-05-16T21:22:27.940Z,21.64
2018-05-16T21:24:56.251Z,17.28
2018-05-16T21:27:24.579Z,19.50
2018-05-16T21:29:52.878Z,20.14
2018-05-16T21:32:21.199Z,21.62
2018-05-16T21:34:49.502Z,18.24
2018-05-16T21:37:17.820Z,20.16
2018-05-16T21:39:46.123Z,21.06
2018-05-16T21:42:14.443Z,18.54
2018-05-16T21:44:42.737Z,17.48
2018-05-16T21:47:11.035Z,21.78
2018-05-16T21:49:39.354Z,19.20
2018-05-16T21:52:07.668Z,17.56
2018-05-16T21:54:35.994Z,19.64
2018-05-16T21:57:04.307Z,15.52
2018-05-16T21:59:32.618Z,18.54
2018-05-16T22:02:00.923Z,15.88
2018-05-16T22:04:29.246Z,22.42
2018-05-16T22:06:57.550Z,24.88
2018-05-16T22:09:25.862Z,24.30
2018-05-16T22:11:54.168Z,35.42
2018-05-16T22:14:22.485Z,32.04
2018-05-16T22:16:50.790Z,29.68
2018-05-16T22:19:19.106Z,27.80
2018-05-16T22:21:46.642Z,27.72
2018-05-16T22:24:14.966Z,29.42
2018-05-16T22:26:43.274Z,26.18
2018-05-16T22:29:11.607Z,23.32
2018-05-16T22:31:45.638Z,24.24
2018-05-16T22:34:19.627Z,26.00
2018-05-16T22:36:53.511Z,22.20
2018-05-16T22:39:27.574Z,24.18
2018-05-16T22:42:01.687Z,23.38
2018-05-16T22:44:48.719Z,25.84
2018-05-16T22:47:17.018Z,24.72
2018-05-16T22:49:45.319Z,23.58
2018-05-16T22:52:13.639Z,27.24
2018-05-16T22:54:41.943Z,30.56
2018-05-16T22:57:09.494Z,29.94
2018-05-16T22:59:37.781Z,25.32
2018-05-16T23:02:06.102Z,28.12
2018-05-16T23:04:34.397Z,21.58
2018-05-16T23:07:02.719Z,26.42
2018-05-16T23:09:31.023Z,30.88
2018-05-16T23:11:59.345Z,26.68
2018-05-16T23:14:27.633Z,23.96
2018-05-16T23:16:55.956Z,25.68
2018-05-16T23:19:24.254Z,33.18
2018-05-16T23:21:52.571Z,24.30
2018-05-16T23:24:20.879Z,31.92
2018-05-16T23:26:49.207Z,26.90
2018-05-16T23:29:17.503Z,25.16
2018-05-16T23:31:45.804Z,26.10
2018-05-16T23:34:14.119Z,25.90
2018-05-16T23:36:42.414Z,28.66
2018-05-16T23:39:10.739Z,27.20
2018-05-16T23:41:38.275Z,25.02
2018-05-16T23:44:06.599Z,28.56
2018-05-16T23:46:34.898Z,28.28
2018-05-16T23:49:02.446Z,25.68
2018-05-16T23:51:30.753Z,32.04
2018-05-16T23:53:59.071Z,27.24
2018-05-16T23:56:26.594Z,29.54
2018-05-16T23:58:54.910Z,33.14
